sensor_id;sensor_type;location;lat;lon;timestamp;pressure;altitude;pressure_sealevel;temperature;humidity
43217;BME280;60511;42.686;23.300;2022-07-11T00:01:24;94718.41;;;25.61;32.79
43217;BME280;60511;42.686;23.300;2022-07-11T00:03:25;94721.59;;;25.43;32.71
43217;BME280;60511;42.686;23.300;2022-07-11T00:05:25;94716.00;;;25.56;32.91
43217;BME280;60511;42.686;23.300;2022-07-11T00:07:25;94723.47;;;25.39;32.80
43217;BME280;60511;42.686;23.300;2022-07-11T00:09:26;94722.66;;;25.35;32.92
43217;BME280;60511;42.686;23.300;2022-07-11T00:11:26;94718.19;;;25.46;32.98
43217;BME280;60511;42.686;23.300;2022-07-11T00:13:27;94728.19;;;25.42;32.80
43217;BME280;60511;42.686;23.300;2022-07-11T00:15:27;94719.91;;;25.32;32.77
43217;BME280;60511;42.686;23.300;2022-07-11T00:17:27;94719.72;;;25.48;32.63
43217;BME280;60511;42.686;23.300;2022-07-11T00:19:28;94719.13;;;25.58;32.91
43217;BME280;60511;42.686;23.300;2022-07-11T00:21:28;94725.34;;;25.58;32.38
43217;BME280;60511;42.686;23.300;2022-07-11T00:23:29;94722.72;;;25.65;32.47
43217;BME280;60511;42.686;23.300;2022-07-11T00:25:30;94732.19;;;24.44;33.45
43217;BME280;60511;42.686;23.300;2022-07-11T00:27:30;94729.84;;;23.72;34.67
43217;BME280;60511;42.686;23.300;2022-07-11T00:29:31;94736.75;;;22.61;36.09
43217;BME280;60511;42.686;23.300;2022-07-11T00:31:32;94744.38;;;22.31;36.49
43217;BME280;60511;42.686;23.300;2022-07-11T00:33:32;94742.84;;;22.18;37.32
43217;BME280;60511;42.686;23.300;2022-07-11T00:35:33;94742.25;;;21.59;38.43
43217;BME280;60511;42.686;23.300;2022-07-11T00:37:33;94743.88;;;22.25;37.28
43217;BME280;60511;42.686;23.300;2022-07-11T00:39:33;94745.66;;;22.21;36.88
43217;BME280;60511;42.686;23.300;2022-07-11T00:41:34;94747.09;;;21.66;38.54
43217;BME280;60511;42.686;23.300;2022-07-11T00:43:35;94748.09;;;21.49;38.43
43217;BME280;60511;42.686;23.300;2022-07-11T00:45:36;94745.94;;;21.79;38.12
43217;BME280;60511;42.686;23.300;2022-07-11T00:47:36;94748.72;;;21.21;38.61
43217;BME280;60511;42.686;23.300;2022-07-11T00:49:37;94752.97;;;20.43;40.85
43217;BME280;60511;42.686;23.300;2022-07-11T00:51:37;94753.06;;;20.14;41.53
43217;BME280;60511;42.686;23.300;2022-07-11T00:53:37;94750.84;;;19.26;43.61
43217;BME280;60511;42.686;23.300;2022-07-11T00:55:38;94744.72;;;21.40;39.43
43217;BME280;60511;42.686;23.300;2022-07-11T00:57:39;94750.97;;;20.19;41.35
43217;BME280;60511;42.686;23.300;2022-07-11T00:59:40;94751.41;;;20.42;41.41
43217;BME280;60511;42.686;23.300;2022-07-11T01:01:40;94759.78;;;20.95;40.10
43217;BME280;60511;42.686;23.300;2022-07-11T01:03:41;94752.03;;;21.64;39.09
43217;BME280;60511;42.686;23.300;2022-07-11T01:05:41;94751.19;;;22.00;38.14
43217;BME280;60511;42.686;23.300;2022-07-11T01:07:41;94748.56;;;22.57;36.94
43217;BME280;60511;42.686;23.300;2022-07-11T01:09:42;94746.75;;;22.33;37.33
43217;BME280;60511;42.686;23.300;2022-07-11T01:11:42;94745.38;;;21.86;38.02
43217;BME280;60511;42.686;23.300;2022-07-11T01:13:43;94749.44;;;21.55;38.95
43217;BME280;60511;42.686;23.300;2022-07-11T01:15:43;94748.09;;;21.49;39.02
43217;BME280;60511;42.686;23.300;2022-07-11T01:17:44;94739.34;;;21.52;38.89
43217;BME280;60511;42.686;23.300;2022-07-11T01:19:44;94741.03;;;21.57;38.72
43217;BME280;60511;42.686;23.300;2022-07-11T01:21:47;94744.72;;;21.64;38.52
43217;BME280;60511;42.686;23.300;2022-07-11T01:23:49;94744.50;;;21.70;38.07
43217;BME280;60511;42.686;23.300;2022-07-11T01:25:49;94744.38;;;21.29;39.25
43217;BME280;60511;42.686;23.300;2022-07-11T01:27:50;94747.19;;;21.45;39.25
43217;BME280;60511;42.686;23.300;2022-07-11T01:29:51;94743.06;;;21.48;39.07
43217;BME280;60511;42.686;23.300;2022-07-11T01:31:52;94745.31;;;21.45;38.89
43217;BME280;60511;42.686;23.300;2022-07-11T01:33:53;94740.91;;;21.53;38.66
43217;BME280;60511;42.686;23.300;2022-07-11T01:35:53;94741.03;;;22.22;37.58
43217;BME280;60511;42.686;23.300;2022-07-11T01:37:53;94742.03;;;21.77;37.79
43217;BME280;60511;42.686;23.300;2022-07-11T01:39:53;94743.16;;;21.63;38.41
43217;BME280;60511;42.686;23.300;2022-07-11T01:41:54;94744.03;;;21.43;38.59
43217;BME280;60511;42.686;23.300;2022-07-11T01:43:55;94737.09;;;21.54;38.50
43217;BME280;60511;42.686;23.300;2022-07-11T01:45:56;94741.22;;;21.27;38.89
43217;BME280;60511;42.686;23.300;2022-07-11T01:47:57;94739.13;;;21.45;38.59
43217;BME280;60511;42.686;23.300;2022-07-11T01:49:59;94740.66;;;21.09;39.14
43217;BME280;60511;42.686;23.300;2022-07-11T01:51:59;94745.63;;;20.53;40.31
43217;BME280;60511;42.686;23.300;2022-07-11T01:53:59;94753.13;;;20.26;40.93
43217;BME280;60511;42.686;23.300;2022-07-11T01:55:59;94749.91;;;20.33;40.71
43217;BME280;60511;42.686;23.300;2022-07-11T01:58:00;94751.94;;;19.94;41.30
43217;BME280;60511;42.686;23.300;2022-07-11T02:00:00;94744.13;;;19.80;41.89
43217;BME280;60511;42.686;23.300;2022-07-11T02:02:00;94756.59;;;20.26;40.56
43217;BME280;60511;42.686;23.300;2022-07-11T02:04:01;94749.75;;;19.27;43.14
43217;BME280;60511;42.686;23.300;2022-07-11T02:06:02;94761.63;;;20.28;40.87
43217;BME280;60511;42.686;23.300;2022-07-11T02:08:03;94753.75;;;20.44;40.83
43217;BME280;60511;42.686;23.300;2022-07-11T02:10:12;94758.34;;;20.22;40.97
43217;BME280;60511;42.686;23.300;2022-07-11T02:12:13;94759.59;;;19.15;43.06
43217;BME280;60511;42.686;23.300;2022-07-11T02:14:14;94754.16;;;19.62;42.15
43217;BME280;60511;42.686;23.300;2022-07-11T02:16:14;94759.03;;;18.74;44.03
43217;BME280;60511;42.686;23.300;2022-07-11T02:18:15;94761.34;;;19.02;43.60
43217;BME280;60511;42.686;23.300;2022-07-11T02:20:15;94758.88;;;18.71;44.26
43217;BME280;60511;42.686;23.300;2022-07-11T02:22:16;94755.31;;;19.14;43.33
43217;BME280;60511;42.686;23.300;2022-07-11T02:24:16;94763.41;;;19.43;42.63
43217;BME280;60511;42.686;23.300;2022-07-11T02:26:16;94760.28;;;19.33;42.98
43217;BME280;60511;42.686;23.300;2022-07-11T02:28:16;94765.38;;;18.52;44.53
43217;BME280;60511;42.686;23.300;2022-07-11T02:30:17;94766.31;;;18.56;44.39
43217;BME280;60511;42.686;23.300;2022-07-11T02:32:18;94778.44;;;17.93;46.11
43217;BME280;60511;42.686;23.300;2022-07-11T02:34:18;94776.56;;;18.02;45.90
43217;BME280;60511;42.686;23.300;2022-07-11T02:36:19;94778.78;;;18.09;46.00
43217;BME280;60511;42.686;23.300;2022-07-11T02:38:19;94777.53;;;18.41;45.11
43217;BME280;60511;42.686;23.300;2022-07-11T02:40:20;94776.41;;;18.16;45.67
43217;BME280;60511;42.686;23.300;2022-07-11T02:42:20;94777.53;;;18.41;45.22
43217;BME280;60511;42.686;23.300;2022-07-11T02:44:20;94785.84;;;18.31;45.39
43217;BME280;60511;42.686;23.300;2022-07-11T02:46:21;94780.19;;;18.06;45.73
43217;BME280;60511;42.686;23.300;2022-07-11T02:48:22;94784.78;;;18.32;45.40
43217;BME280;60511;42.686;23.300;2022-07-11T02:50:22;94789.41;;;17.82;46.47
43217;BME280;60511;42.686;23.300;2022-07-11T02:52:23;94788.69;;;17.91;46.28
43217;BME280;60511;42.686;23.300;2022-07-11T02:54:23;94781.13;;;18.36;45.35
43217;BME280;60511;42.686;23.300;2022-07-11T02:56:23;94782.22;;;18.96;44.02
43217;BME280;60511;42.686;23.300;2022-07-11T02:58:24;94780.69;;;18.43;44.97
43217;BME280;60511;42.686;23.300;2022-07-11T03:00:24;94782.09;;;18.49;44.97
43217;BME280;60511;42.686;23.300;2022-07-11T03:02:24;94787.28;;;18.11;45.86
43217;BME280;60511;42.686;23.300;2022-07-11T03:04:25;94795.78;;;18.04;46.13
43217;BME280;60511;42.686;23.300;2022-07-11T03:06:25;94790.25;;;17.92;46.41
43217;BME280;60511;42.686;23.300;2022-07-11T03:08:25;94783.50;;;18.55;45.07
43217;BME280;60511;42.686;23.300;2022-07-11T03:10:26;94789.78;;;19.41;43.09
43217;BME280;60511;42.686;23.300;2022-07-11T03:12:26;94799.66;;;19.97;41.63
43217;BME280;60511;42.686;23.300;2022-07-11T03:14:27;94795.66;;;20.03;41.52
43217;BME280;60511;42.686;23.300;2022-07-11T03:16:27;94789.44;;;19.81;41.84
43217;BME280;60511;42.686;23.300;2022-07-11T03:18:28;94798.88;;;20.17;41.08
43217;BME280;60511;42.686;23.300;2022-07-11T03:20:28;94791.13;;;19.18;43.10
43217;BME280;60511;42.686;23.300;2022-07-11T03:22:29;94793.88;;;19.39;42.80
43217;BME280;60511;42.686;23.300;2022-07-11T03:24:29;94797.84;;;19.41;42.69
43217;BME280;60511;42.686;23.300;2022-07-11T03:26:29;94803.75;;;19.17;43.06
43217;BME280;60511;42.686;23.300;2022-07-11T03:28:30;94797.09;;;20.42;40.66
43217;BME280;60511;42.686;23.300;2022-07-11T03:30:30;94799.72;;;19.79;41.54
43217;BME280;60511;42.686;23.300;2022-07-11T03:32:33;94797.94;;;19.54;42.03
43217;BME280;60511;42.686;23.300;2022-07-11T03:34:33;94801.47;;;19.84;41.48
43217;BME280;60511;42.686;23.300;2022-07-11T03:36:33;94798.25;;;19.52;42.05
43217;BME280;60511;42.686;23.300;2022-07-11T03:38:34;94794.47;;;19.53;42.17
43217;BME280;60511;42.686;23.300;2022-07-11T03:40:34;94795.13;;;19.50;41.70
43217;BME280;60511;42.686;23.300;2022-07-11T03:42:34;94811.25;;;18.42;44.61
43217;BME280;60511;42.686;23.300;2022-07-11T03:44:35;94809.84;;;18.62;43.94
43217;BME280;60511;42.686;23.300;2022-07-11T03:46:35;94807.97;;;17.70;46.63
43217;BME280;60511;42.686;23.300;2022-07-11T03:48:36;94809.22;;;18.47;44.98
43217;BME280;60511;42.686;23.300;2022-07-11T03:50:36;94817.56;;;18.37;45.08
43217;BME280;60511;42.686;23.300;2022-07-11T03:52:36;94819.91;;;18.30;45.55
43217;BME280;60511;42.686;23.300;2022-07-11T03:54:37;94826.47;;;17.89;46.44
43217;BME280;60511;42.686;23.300;2022-07-11T03:56:37;94816.72;;;17.93;46.62
43217;BME280;60511;42.686;23.300;2022-07-11T03:58:37;94830.47;;;18.87;44.60
43217;BME280;60511;42.686;23.300;2022-07-11T04:00:38;94832.38;;;18.35;45.40
43217;BME280;60511;42.686;23.300;2022-07-11T04:02:38;94829.69;;;18.52;45.46
43217;BME280;60511;42.686;23.300;2022-07-11T04:04:39;94841.31;;;18.04;46.47
43217;BME280;60511;42.686;23.300;2022-07-11T04:06:39;94837.25;;;17.75;47.33
43217;BME280;60511;42.686;23.300;2022-07-11T04:08:42;94837.41;;;18.71;45.14
43217;BME280;60511;42.686;23.300;2022-07-11T04:10:42;94850.78;;;18.10;46.77
43217;BME280;60511;42.686;23.300;2022-07-11T04:12:43;94844.50;;;19.02;44.75
43217;BME280;60511;42.686;23.300;2022-07-11T04:14:43;94848.72;;;19.20;44.24
43217;BME280;60511;42.686;23.300;2022-07-11T04:16:44;94848.44;;;18.09;46.97
43217;BME280;60511;42.686;23.300;2022-07-11T04:18:44;94843.22;;;18.12;47.26
43217;BME280;60511;42.686;23.300;2022-07-11T04:20:45;94843.25;;;18.38;46.47
43217;BME280;60511;42.686;23.300;2022-07-11T04:22:45;94850.34;;;18.69;45.76
43217;BME280;60511;42.686;23.300;2022-07-11T04:24:46;94851.59;;;17.79;48.03
43217;BME280;60511;42.686;23.300;2022-07-11T04:26:46;94849.13;;;17.83;48.32
43217;BME280;60511;42.686;23.300;2022-07-11T04:28:46;94857.59;;;17.76;48.31
43217;BME280;60511;42.686;23.300;2022-07-11T04:30:47;94855.03;;;18.11;47.69
43217;BME280;60511;42.686;23.300;2022-07-11T04:32:47;94838.59;;;17.86;48.09
43217;BME280;60511;42.686;23.300;2022-07-11T04:34:49;94847.75;;;17.54;49.13
43217;BME280;60511;42.686;23.300;2022-07-11T04:36:49;94854.59;;;17.38;49.43
43217;BME280;60511;42.686;23.300;2022-07-11T04:38:49;94852.03;;;17.64;48.92
43217;BME280;60511;42.686;23.300;2022-07-11T04:40:50;94839.25;;;17.52;49.33
43217;BME280;60511;42.686;23.300;2022-07-11T04:42:50;94847.25;;;17.83;48.53
43217;BME280;60511;42.686;23.300;2022-07-11T04:44:52;94839.00;;;18.46;46.65
43217;BME280;60511;42.686;23.300;2022-07-11T04:46:52;94848.47;;;18.52;46.41
43217;BME280;60511;42.686;23.300;2022-07-11T04:48:52;94845.31;;;18.59;46.18
43217;BME280;60511;42.686;23.300;2022-07-11T04:50:53;94854.78;;;19.09;45.18
43217;BME280;60511;42.686;23.300;2022-07-11T04:52:54;94853.66;;;18.48;46.60
43217;BME280;60511;42.686;23.300;2022-07-11T04:54:54;94847.31;;;18.01;47.95
43217;BME280;60511;42.686;23.300;2022-07-11T04:56:54;94853.84;;;17.46;49.53
43217;BME280;60511;42.686;23.300;2022-07-11T04:58:56;94860.81;;;17.47;49.68
43217;BME280;60511;42.686;23.300;2022-07-11T05:00:56;94859.78;;;17.65;49.42
43217;BME280;60511;42.686;23.300;2022-07-11T05:02:56;94864.81;;;18.16;48.18
43217;BME280;60511;42.686;23.300;2022-07-11T05:04:57;94865.44;;;17.64;49.52
43217;BME280;60511;42.686;23.300;2022-07-11T05:06:57;94859.59;;;17.62;49.68
43217;BME280;60511;42.686;23.300;2022-07-11T05:08:57;94867.47;;;17.67;49.84
43217;BME280;60511;42.686;23.300;2022-07-11T05:10:58;94865.03;;;17.48;50.45
43217;BME280;60511;42.686;23.300;2022-07-11T05:12:58;94876.53;;;17.48;50.70
43217;BME280;60511;42.686;23.300;2022-07-11T05:14:58;94870.53;;;18.75;47.50
43217;BME280;60511;42.686;23.300;2022-07-11T05:16:59;94884.81;;;17.70;50.07
43217;BME280;60511;42.686;23.300;2022-07-11T05:18:59;94870.47;;;17.65;50.76
43217;BME280;60511;42.686;23.300;2022-07-11T05:20:59;94872.00;;;17.98;49.81
43217;BME280;60511;42.686;23.300;2022-07-11T05:23:00;94875.75;;;18.54;48.32
43217;BME280;60511;42.686;23.300;2022-07-11T05:25:00;94872.91;;;18.77;47.59
43217;BME280;60511;42.686;23.300;2022-07-11T05:27:00;94870.22;;;18.51;48.72
43217;BME280;60511;42.686;23.300;2022-07-11T05:29:01;94872.91;;;18.59;48.08
43217;BME280;60511;42.686;23.300;2022-07-11T05:31:01;94870.44;;;17.88;49.71
43217;BME280;60511;42.686;23.300;2022-07-11T05:33:02;94882.06;;;19.11;46.88
43217;BME280;60511;42.686;23.300;2022-07-11T05:35:03;94876.59;;;20.22;43.86
43217;BME280;60511;42.686;23.300;2022-07-11T05:37:04;94871.22;;;20.94;42.12
43217;BME280;60511;42.686;23.300;2022-07-11T05:39:05;94882.59;;;21.33;41.14
43217;BME280;60511;42.686;23.300;2022-07-11T05:41:05;94882.88;;;21.65;40.28
43217;BME280;60511;42.686;23.300;2022-07-11T05:43:07;94876.06;;;21.80;39.37
43217;BME280;60511;42.686;23.300;2022-07-11T05:45:07;94887.97;;;22.03;39.03
43217;BME280;60511;42.686;23.300;2022-07-11T05:47:08;94886.28;;;22.11;38.29
43217;BME280;60511;42.686;23.300;2022-07-11T05:49:08;94880.66;;;22.16;37.97
43217;BME280;60511;42.686;23.300;2022-07-11T05:51:09;94871.91;;;22.44;37.83
43217;BME280;60511;42.686;23.300;2022-07-11T05:53:09;94875.97;;;22.38;37.05
43217;BME280;60511;42.686;23.300;2022-07-11T05:55:11;94879.63;;;22.70;37.47
43217;BME280;60511;42.686;23.300;2022-07-11T05:57:12;94877.03;;;22.61;36.40
43217;BME280;60511;42.686;23.300;2022-07-11T05:59:13;94873.47;;;22.45;36.29
43217;BME280;60511;42.686;23.300;2022-07-11T06:01:15;94879.66;;;22.58;35.90
43217;BME280;60511;42.686;23.300;2022-07-11T06:03:15;94879.97;;;22.56;35.54
43217;BME280;60511;42.686;23.300;2022-07-11T06:05:15;94870.81;;;22.73;36.02
43217;BME280;60511;42.686;23.300;2022-07-11T06:07:16;94877.66;;;22.83;35.17
43217;BME280;60511;42.686;23.300;2022-07-11T06:09:36;94861.84;;;22.69;34.53
43217;BME280;60511;42.686;23.300;2022-07-11T06:11:36;94865.03;;;22.59;35.03
43217;BME280;60511;42.686;23.300;2022-07-11T06:13:40;94873.06;;;22.71;34.92
43217;BME280;60511;42.686;23.300;2022-07-11T06:15:41;94865.59;;;22.93;35.01
43217;BME280;60511;42.686;23.300;2022-07-11T06:17:41;94869.72;;;22.74;34.44
43217;BME280;60511;42.686;23.300;2022-07-11T06:19:45;94864.34;;;22.62;33.91
43217;BME280;60511;42.686;23.300;2022-07-11T06:21:45;94869.72;;;22.74;34.20
43217;BME280;60511;42.686;23.300;2022-07-11T06:23:45;94868.91;;;22.74;34.05
43217;BME280;60511;42.686;23.300;2022-07-11T06:25:45;94879.41;;;22.63;34.17
43217;BME280;60511;42.686;23.300;2022-07-11T06:27:46;94890.50;;;22.74;33.92
43217;BME280;60511;42.686;23.300;2022-07-11T06:29:46;94886.50;;;22.96;34.07
43217;BME280;60511;42.686;23.300;2022-07-11T06:31:47;94893.47;;;23.09;34.18
43217;BME280;60511;42.686;23.300;2022-07-11T06:33:47;94889.72;;;23.42;33.45
43217;BME280;60511;42.686;23.300;2022-07-11T06:35:54;94881.44;;;23.51;33.59
43217;BME280;60511;42.686;23.300;2022-07-11T06:37:54;94883.09;;;23.11;33.01
43217;BME280;60511;42.686;23.300;2022-07-11T06:39:56;94884.66;;;23.12;33.07
43217;BME280;60511;42.686;23.300;2022-07-11T06:41:56;94881.53;;;22.98;33.13
43217;BME280;60511;42.686;23.300;2022-07-11T06:43:57;94880.63;;;23.06;33.52
43217;BME280;60511;42.686;23.300;2022-07-11T06:45:57;94873.31;;;23.35;32.76
43217;BME280;60511;42.686;23.300;2022-07-11T06:47:57;94868.91;;;23.14;32.42
43217;BME280;60511;42.686;23.300;2022-07-11T06:49:57;94882.41;;;23.14;32.46
43217;BME280;60511;42.686;23.300;2022-07-11T06:51:58;94883.13;;;23.27;31.97
43217;BME280;60511;42.686;23.300;2022-07-11T06:53:58;94885.47;;;23.29;31.97
43217;BME280;60511;42.686;23.300;2022-07-11T06:55:58;94881.66;;;23.30;31.63
43217;BME280;60511;42.686;23.300;2022-07-11T06:57:59;94877.84;;;23.46;32.11
43217;BME280;60511;42.686;23.300;2022-07-11T06:59:59;94874.97;;;23.39;31.63
43217;BME280;60511;42.686;23.300;2022-07-11T07:02:00;94867.66;;;23.40;31.68
43217;BME280;60511;42.686;23.300;2022-07-11T07:04:00;94870.03;;;23.57;31.29
43217;BME280;60511;42.686;23.300;2022-07-11T07:06:07;94870.16;;;23.77;31.37
43217;BME280;60511;42.686;23.300;2022-07-11T07:08:07;94864.81;;;23.96;30.85
43217;BME280;60511;42.686;23.300;2022-07-11T07:10:08;94874.31;;;23.74;31.13
43217;BME280;60511;42.686;23.300;2022-07-11T07:12:09;94871.94;;;23.57;30.79
43217;BME280;60511;42.686;23.300;2022-07-11T07:14:10;94868.28;;;23.65;31.12
43217;BME280;60511;42.686;23.300;2022-07-11T07:16:10;94866.94;;;23.87;30.75
43217;BME280;60511;42.686;23.300;2022-07-11T07:18:10;94862.91;;;23.81;30.54
43217;BME280;60511;42.686;23.300;2022-07-11T07:20:12;94867.91;;;23.95;30.89
43217;BME280;60511;42.686;23.300;2022-07-11T07:22:14;94862.19;;;24.00;30.50
43217;BME280;60511;42.686;23.300;2022-07-11T07:24:16;94864.03;;;23.96;30.60
43217;BME280;60511;42.686;23.300;2022-07-11T07:26:16;94871.97;;;23.73;30.97
43217;BME280;60511;42.686;23.300;2022-07-11T07:28:16;94867.38;;;23.89;31.03
43217;BME280;60511;42.686;23.300;2022-07-11T07:30:17;94869.69;;;24.06;30.71
43217;BME280;60511;42.686;23.300;2022-07-11T07:32:17;94869.53;;;24.15;30.41
43217;BME280;60511;42.686;23.300;2022-07-11T07:34:21;94872.88;;;23.93;30.82
43217;BME280;60511;42.686;23.300;2022-07-11T07:36:21;94857.41;;;23.93;30.66
43217;BME280;60511;42.686;23.300;2022-07-11T07:38:22;94863.78;;;23.85;30.78
43217;BME280;60511;42.686;23.300;2022-07-11T07:40:23;94866.41;;;24.13;30.73
43217;BME280;60511;42.686;23.300;2022-07-11T07:42:23;94874.66;;;24.04;31.14
43217;BME280;60511;42.686;23.300;2022-07-11T07:44:23;94873.53;;;24.05;30.39
43217;BME280;60511;42.686;23.300;2022-07-11T07:46:24;94870.13;;;24.09;30.35
43217;BME280;60511;42.686;23.300;2022-07-11T07:48:25;94870.50;;;24.07;30.48
43217;BME280;60511;42.686;23.300;2022-07-11T07:50:25;94872.91;;;24.28;30.14
43217;BME280;60511;42.686;23.300;2022-07-11T07:52:26;94866.00;;;24.31;29.94
43217;BME280;60511;42.686;23.300;2022-07-11T07:54:26;94861.53;;;23.87;30.37
43217;BME280;60511;42.686;23.300;2022-07-11T07:56:27;94864.03;;;23.64;30.53
43217;BME280;60511;42.686;23.300;2022-07-11T07:58:28;94872.72;;;23.57;30.62
43217;BME280;60511;42.686;23.300;2022-07-11T08:00:28;94880.16;;;23.76;30.40
43217;BME280;60511;42.686;23.300;2022-07-11T08:02:48;94872.06;;;23.92;30.28
43217;BME280;60511;42.686;23.300;2022-07-11T08:04:50;94871.41;;;24.31;30.03
43217;BME280;60511;42.686;23.300;2022-07-11T08:06:51;94872.28;;;24.35;29.85
43217;BME280;60511;42.686;23.300;2022-07-11T08:08:51;94881.59;;;24.37;30.19
43217;BME280;60511;42.686;23.300;2022-07-11T08:10:51;94877.84;;;24.42;30.21
43217;BME280;60511;42.686;23.300;2022-07-11T08:12:52;94879.41;;;24.59;29.98
43217;BME280;60511;42.686;23.300;2022-07-11T08:14:52;94874.97;;;24.51;29.53
43217;BME280;60511;42.686;23.300;2022-07-11T08:16:52;94871.50;;;24.50;29.68
43217;BME280;60511;42.686;23.300;2022-07-11T08:18:53;94885.53;;;24.40;29.55
43217;BME280;60511;42.686;23.300;2022-07-11T08:20:55;94849.69;;;24.27;29.66
43217;BME280;60511;42.686;23.300;2022-07-11T08:23:00;94878.66;;;24.26;29.53
43217;BME280;60511;42.686;23.300;2022-07-11T08:25:01;94885.72;;;24.31;29.73
43217;BME280;60511;42.686;23.300;2022-07-11T08:27:02;94884.16;;;24.30;29.48
43217;BME280;60511;42.686;23.300;2022-07-11T08:29:03;94875.63;;;24.47;29.38
43217;BME280;60511;42.686;23.300;2022-07-11T08:31:03;94886.94;;;24.34;29.02
43217;BME280;60511;42.686;23.300;2022-07-11T08:33:05;94882.13;;;24.43;29.06
43217;BME280;60511;42.686;23.300;2022-07-11T08:35:06;94872.06;;;24.43;28.97
43217;BME280;60511;42.686;23.300;2022-07-11T08:37:07;94883.63;;;24.24;29.14
43217;BME280;60511;42.686;23.300;2022-07-11T08:39:08;94869.25;;;24.20;28.97
43217;BME280;60511;42.686;23.300;2022-07-11T08:41:09;94870.63;;;24.30;29.00
43217;BME280;60511;42.686;23.300;2022-07-11T08:43:14;94893.03;;;24.31;29.04
43217;BME280;60511;42.686;23.300;2022-07-11T08:45:15;94881.22;;;22.10;29.91
43217;BME280;60511;42.686;23.300;2022-07-11T08:47:16;94878.63;;;21.52;29.81
43217;BME280;60511;42.686;23.300;2022-07-11T08:49:16;94883.69;;;21.32;30.35
43217;BME280;60511;42.686;23.300;2022-07-11T08:51:17;94878.94;;;21.17;30.25
43217;BME280;60511;42.686;23.300;2022-07-11T08:53:18;94884.59;;;21.03;30.06
43217;BME280;60511;42.686;23.300;2022-07-11T08:55:18;94887.06;;;20.75;29.41
43217;BME280;60511;42.686;23.300;2022-07-11T08:57:20;94889.41;;;20.76;29.67
43217;BME280;60511;42.686;23.300;2022-07-11T08:59:21;94889.41;;;20.97;30.11
43217;BME280;60511;42.686;23.300;2022-07-11T09:01:25;94893.50;;;20.82;30.02
43217;BME280;60511;42.686;23.300;2022-07-11T09:03:27;94911.41;;;20.48;29.87
43217;BME280;60511;42.686;23.300;2022-07-11T09:05:27;94895.44;;;20.22;30.32
43217;BME280;60511;42.686;23.300;2022-07-11T09:07:28;94894.38;;;20.15;30.82
43217;BME280;60511;42.686;23.300;2022-07-11T09:09:29;94890.88;;;20.14;31.00
43217;BME280;60511;42.686;23.300;2022-07-11T09:11:47;94886.50;;;20.39;30.79
43217;BME280;60511;42.686;23.300;2022-07-11T09:13:49;94887.13;;;20.66;30.20
43217;BME280;60511;42.686;23.300;2022-07-11T09:15:49;94906.72;;;20.66;29.72
43217;BME280;60511;42.686;23.300;2022-07-11T09:17:49;94900.88;;;20.35;30.35
43217;BME280;60511;42.686;23.300;2022-07-11T09:19:50;94891.91;;;21.36;28.81
43217;BME280;60511;42.686;23.300;2022-07-11T09:22:03;94901.84;;;21.02;29.58
43217;BME280;60511;42.686;23.300;2022-07-11T09:24:22;94902.13;;;21.09;29.84
43217;BME280;60511;42.686;23.300;2022-07-11T09:26:51;94897.81;;;21.29;29.73
43217;BME280;60511;42.686;23.300;2022-07-11T09:28:58;94912.09;;;21.09;29.45
43217;BME280;60511;42.686;23.300;2022-07-11T09:30:59;94903.56;;;21.40;29.09
43217;BME280;60511;42.686;23.300;2022-07-11T09:33:03;94917.81;;;21.86;29.13
43217;BME280;60511;42.686;23.300;2022-07-11T09:35:04;94902.72;;;20.22;29.90
43217;BME280;60511;42.686;23.300;2022-07-11T09:37:04;94886.44;;;20.18;29.86
43217;BME280;60511;42.686;23.300;2022-07-11T09:39:05;94892.78;;;20.14;29.95
43217;BME280;60511;42.686;23.300;2022-07-11T09:41:10;94904.19;;;20.40;30.06
43217;BME280;60511;42.686;23.300;2022-07-11T09:43:10;94902.66;;;20.60;30.08
43217;BME280;60511;42.686;23.300;2022-07-11T09:45:10;94910.88;;;20.64;29.79
43217;BME280;60511;42.686;23.300;2022-07-11T09:47:12;94903.31;;;20.99;29.47
43217;BME280;60511;42.686;23.300;2022-07-11T09:49:13;94901.22;;;21.05;29.09
43217;BME280;60511;42.686;23.300;2022-07-11T09:51:18;94900.22;;;21.43;28.99
43217;BME280;60511;42.686;23.300;2022-07-11T09:53:18;94906.19;;;21.15;28.77
43217;BME280;60511;42.686;23.300;2022-07-11T09:55:20;94897.47;;;20.97;28.62
43217;BME280;60511;42.686;23.300;2022-07-11T09:57:30;94898.19;;;21.06;28.64
43217;BME280;60511;42.686;23.300;2022-07-11T09:59:30;94905.59;;;20.17;29.93
43217;BME280;60511;42.686;23.300;2022-07-11T10:01:31;94910.03;;;20.42;30.02
43217;BME280;60511;42.686;23.300;2022-07-11T10:03:31;94894.22;;;21.25;29.93
43217;BME280;60511;42.686;23.300;2022-07-11T10:05:34;94898.66;;;21.09;30.53
43217;BME280;60511;42.686;23.300;2022-07-11T10:07:36;94907.75;;;21.16;30.42
43217;BME280;60511;42.686;23.300;2022-07-11T10:09:37;94904.34;;;20.86;30.48
43217;BME280;60511;42.686;23.300;2022-07-11T10:11:37;94906.41;;;20.89;30.29
43217;BME280;60511;42.686;23.300;2022-07-11T10:13:38;94894.22;;;20.41;30.66
43217;BME280;60511;42.686;23.300;2022-07-11T10:15:39;94881.81;;;20.78;30.56
43217;BME280;60511;42.686;23.300;2022-07-11T10:24:05;94908.38;;;21.34;29.89
43217;BME280;60511;42.686;23.300;2022-07-11T10:30:49;94919.81;;;21.10;29.86
43217;BME280;60511;42.686;23.300;2022-07-11T10:33:05;94908.59;;;21.29;29.53
43217;BME280;60511;42.686;23.300;2022-07-11T10:35:09;94894.41;;;21.53;29.16
43217;BME280;60511;42.686;23.300;2022-07-11T10:37:10;94906.56;;;21.59;28.85
43217;BME280;60511;42.686;23.300;2022-07-11T10:39:12;94912.09;;;21.42;29.41
43217;BME280;60511;42.686;23.300;2022-07-11T10:41:20;94906.31;;;21.19;29.91
43217;BME280;60511;42.686;23.300;2022-07-11T10:45:30;94914.19;;;21.70;29.21
43217;BME280;60511;42.686;23.300;2022-07-11T10:47:48;94917.78;;;21.61;29.11